sensor_id;sensor_type;location;lat;lon;timestamp;temperature;humidity
4520;DHT22;2272;49.226;8.108;2023-12-20T00:01:27;4.80;99.90
4520;DHT22;2272;49.226;8.108;2023-12-20T00:03:54;4.80;99.90
4520;DHT22;2272;49.226;8.108;2023-12-20T00:06:21;4.80;99.90
4520;DHT22;2272;49.226;8.108;2023-12-20T00:08:47;4.80;99.90
4520;DHT22;2272;49.226;8.108;2023-12-20T00:11:15;4.80;99.90
4520;DHT22;2272;49.226;8.108;2023-12-20T00:13:42;4.80;99.90
4520;DHT22;2272;49.226;8.108;2023-12-20T00:16:09;4.80;99.90
4520;DHT22;2272;49.226;8.108;2023-12-20T00:18:36;4.80;99.90
4520;DHT22;2272;49.226;8.108;2023-12-20T00:21:03;4.80;99.90
4520;DHT22;2272;49.226;8.108;2023-12-20T00:23:30;4.80;99.90
4520;DHT22;2272;49.226;8.108;2023-12-20T00:25:56;4.80;99.90
4520;DHT22;2272;49.226;8.108;2023-12-20T00:28:24;4.80;99.90
4520;DHT22;2272;49.226;8.108;2023-12-20T00:30:51;4.80;99.90
4520;DHT22;2272;49.226;8.108;2023-12-20T00:33:18;4.90;99.90
4520;DHT22;2272;49.226;8.108;2023-12-20T00:35:44;4.80;99.90
4520;DHT22;2272;49.226;8.108;2023-12-20T00:38:11;4.80;99.90
4520;DHT22;2272;49.226;8.108;2023-12-20T00:40:38;4.90;99.90
4520;DHT22;2272;49.226;8.108;2023-12-20T00:43:04;4.90;99.90
4520;DHT22;2272;49.226;8.108;2023-12-20T00:45:33;4.90;99.90
4520;DHT22;2272;49.226;8.108;2023-12-20T00:47:59;4.90;99.90
4520;DHT22;2272;49.226;8.108;2023-12-20T00:50:26;4.90;99.90
4520;DHT22;2272;49.226;8.108;2023-12-20T00:52:53;4.90;99.90
4520;DHT22;2272;49.226;8.108;2023-12-20T00:55:20;4.90;99.90
4520;DHT22;2272;49.226;8.108;2023-12-20T00:57:46;4.90;99.90
4520;DHT22;2272;49.226;8.108;2023-12-20T01:00:14;5.00;99.90
4520;DHT22;2272;49.226;8.108;2023-12-20T01:02:42;4.90;99.90
4520;DHT22;2272;49.226;8.108;2023-12-20T01:05:09;4.90;99.90
4520;DHT22;2272;49.226;8.108;2023-12-20T01:07:35;4.90;99.90
4520;DHT22;2272;49.226;8.108;2023-12-20T01:10:02;5.10;99.90
4520;DHT22;2272;49.226;8.108;2023-12-20T01:12:29;4.90;99.90
4520;DHT22;2272;49.226;8.108;2023-12-20T01:14:56;4.90;99.90
4520;DHT22;2272;49.226;8.108;2023-12-20T01:17:24;5.20;99.90
4520;DHT22;2272;49.226;8.108;2023-12-20T01:19:52;4.90;99.90
4520;DHT22;2272;49.226;8.108;2023-12-20T01:22:18;4.90;99.90
4520;DHT22;2272;49.226;8.108;2023-12-20T01:24:45;4.80;99.90
4520;DHT22;2272;49.226;8.108;2023-12-20T01:27:12;4.80;99.90
4520;DHT22;2272;49.226;8.108;2023-12-20T01:29:38;4.80;99.90
4520;DHT22;2272;49.226;8.108;2023-12-20T01:32:06;4.80;99.90
4520;DHT22;2272;49.226;8.108;2023-12-20T01:34:32;4.80;99.90
4520;DHT22;2272;49.226;8.108;2023-12-20T01:37:00;4.80;99.90
4520;DHT22;2272;49.226;8.108;2023-12-20T01:39:28;4.80;99.90
4520;DHT22;2272;49.226;8.108;2023-12-20T01:41:54;4.70;99.90
4520;DHT22;2272;49.226;8.108;2023-12-20T01:44:21;4.70;99.90
4520;DHT22;2272;49.226;8.108;2023-12-20T01:46:48;4.70;99.90
4520;DHT22;2272;49.226;8.108;2023-12-20T01:49:15;4.70;99.90
4520;DHT22;2272;49.226;8.108;2023-12-20T01:51:42;4.70;99.90
4520;DHT22;2272;49.226;8.108;2023-12-20T01:54:10;4.70;99.90
4520;DHT22;2272;49.226;8.108;2023-12-20T01:56:37;4.70;99.90
4520;DHT22;2272;49.226;8.108;2023-12-20T01:59:05;4.70;99.90
4520;DHT22;2272;49.226;8.108;2023-12-20T02:01:32;4.70;99.90
4520;DHT22;2272;49.226;8.108;2023-12-20T02:03:59;4.70;99.90
4520;DHT22;2272;49.226;8.108;2023-12-20T02:06:29;4.70;99.90
4520;DHT22;2272;49.226;8.108;2023-12-20T02:08:57;4.70;99.90
4520;DHT22;2272;49.226;8.108;2023-12-20T02:11:25;4.70;99.90
4520;DHT22;2272;49.226;8.108;2023-12-20T02:13:52;4.70;99.90
4520;DHT22;2272;49.226;8.108;2023-12-20T02:16:19;4.60;99.90
4520;DHT22;2272;49.226;8.108;2023-12-20T02:18:46;4.60;99.90
4520;DHT22;2272;49.226;8.108;2023-12-20T02:21:13;4.70;99.90
4520;DHT22;2272;49.226;8.108;2023-12-20T02:23:41;4.60;99.90
4520;DHT22;2272;49.226;8.108;2023-12-20T02:26:07;4.60;99.90
4520;DHT22;2272;49.226;8.108;2023-12-20T02:28:34;4.60;99.90
4520;DHT22;2272;49.226;8.108;2023-12-20T02:31:02;4.60;99.90
4520;DHT22;2272;49.226;8.108;2023-12-20T02:33:28;4.60;99.90
4520;DHT22;2272;49.226;8.108;2023-12-20T02:35:55;4.70;99.90
4520;DHT22;2272;49.226;8.108;2023-12-20T02:38:22;4.70;99.90
4520;DHT22;2272;49.226;8.108;2023-12-20T02:40:50;4.70;99.90
4520;DHT22;2272;49.226;8.108;2023-12-20T02:43:16;4.70;99.90
4520;DHT22;2272;49.226;8.108;2023-12-20T02:45:43;4.60;99.90
4520;DHT22;2272;49.226;8.108;2023-12-20T02:48:10;4.60;99.90
4520;DHT22;2272;49.226;8.108;2023-12-20T02:50:37;4.60;99.90
4520;DHT22;2272;49.226;8.108;2023-12-20T02:53:04;4.50;99.90
4520;DHT22;2272;49.226;8.108;2023-12-20T02:55:30;4.50;99.90
4520;DHT22;2272;49.226;8.108;2023-12-20T02:57:58;4.50;99.90
4520;DHT22;2272;49.226;8.108;2023-12-20T03:00:25;4.50;99.90
4520;DHT22;2272;49.226;8.108;2023-12-20T03:02:52;4.40;99.90
4520;DHT22;2272;49.226;8.108;2023-12-20T03:05:18;4.40;99.90
4520;DHT22;2272;49.226;8.108;2023-12-20T03:07:46;4.40;99.90
4520;DHT22;2272;49.226;8.108;2023-12-20T03:10:12;4.40;99.90
4520;DHT22;2272;49.226;8.108;2023-12-20T03:12:39;4.40;99.90
4520;DHT22;2272;49.226;8.108;2023-12-20T03:15:08;4.40;99.90
4520;DHT22;2272;49.226;8.108;2023-12-20T03:17:35;4.40;99.90
4520;DHT22;2272;49.226;8.108;2023-12-20T03:20:02;4.40;99.90
4520;DHT22;2272;49.226;8.108;2023-12-20T03:22:29;4.40;99.90
4520;DHT22;2272;49.226;8.108;2023-12-20T03:24:55;4.40;99.90
4520;DHT22;2272;49.226;8.108;2023-12-20T03:27:22;4.40;99.90
4520;DHT22;2272;49.226;8.108;2023-12-20T03:29:49;4.40;99.90
4520;DHT22;2272;49.226;8.108;2023-12-20T03:32:17;4.40;99.90
4520;DHT22;2272;49.226;8.108;2023-12-20T03:34:43;4.40;99.90
4520;DHT22;2272;49.226;8.108;2023-12-20T03:37:09;4.50;99.90
4520;DHT22;2272;49.226;8.108;2023-12-20T03:39:36;4.50;99.90
4520;DHT22;2272;49.226;8.108;2023-12-20T03:42:03;4.50;99.90
4520;DHT22;2272;49.226;8.108;2023-12-20T03:44:30;4.60;99.90
4520;DHT22;2272;49.226;8.108;2023-12-20T03:46:57;4.60;99.90
4520;DHT22;2272;49.226;8.108;2023-12-20T03:49:25;4.60;99.90
4520;DHT22;2272;49.226;8.108;2023-12-20T03:51:51;4.70;99.90
4520;DHT22;2272;49.226;8.108;2023-12-20T03:54:18;4.70;99.90
4520;DHT22;2272;49.226;8.108;2023-12-20T03:56:45;4.80;99.90
4520;DHT22;2272;49.226;8.108;2023-12-20T03:59:11;4.80;99.90
4520;DHT22;2272;49.226;8.108;2023-12-20T04:01:38;4.80;99.90
4520;DHT22;2272;49.226;8.108;2023-12-20T04:04:05;4.90;99.90
4520;DHT22;2272;49.226;8.108;2023-12-20T04:06:33;4.90;99.90
4520;DHT22;2272;49.226;8.108;2023-12-20T04:09:00;4.90;99.90
4520;DHT22;2272;49.226;8.108;2023-12-20T04:11:26;4.90;99.90
4520;DHT22;2272;49.226;8.108;2023-12-20T04:13:53;4.90;99.90
4520;DHT22;2272;49.226;8.108;2023-12-20T04:16:20;4.80;99.90
4520;DHT22;2272;49.226;8.108;2023-12-20T04:18:46;4.80;99.90
4520;DHT22;2272;49.226;8.108;2023-12-20T04:21:13;4.80;99.90
4520;DHT22;2272;49.226;8.108;2023-12-20T04:23:41;4.80;99.90
4520;DHT22;2272;49.226;8.108;2023-12-20T04:26:08;4.80;99.90
4520;DHT22;2272;49.226;8.108;2023-12-20T04:28:34;4.80;99.90
4520;DHT22;2272;49.226;8.108;2023-12-20T04:31:01;4.80;99.90
4520;DHT22;2272;49.226;8.108;2023-12-20T04:33:28;4.70;99.90
4520;DHT22;2272;49.226;8.108;2023-12-20T04:35:55;4.80;99.90
4520;DHT22;2272;49.226;8.108;2023-12-20T04:38:23;4.80;99.90
4520;DHT22;2272;49.226;8.108;2023-12-20T04:40:51;4.80;99.90
4520;DHT22;2272;49.226;8.108;2023-12-20T04:43:18;4.70;99.90
4520;DHT22;2272;49.226;8.108;2023-12-20T04:45:44;4.80;99.90
4520;DHT22;2272;49.226;8.108;2023-12-20T04:48:11;4.70;99.90
4520;DHT22;2272;49.226;8.108;2023-12-20T04:50:38;4.70;99.90
4520;DHT22;2272;49.226;8.108;2023-12-20T04:53:05;4.70;99.90
4520;DHT22;2272;49.226;8.108;2023-12-20T04:55:31;4.70;99.90
4520;DHT22;2272;49.226;8.108;2023-12-20T04:57:59;4.70;99.90
4520;DHT22;2272;49.226;8.108;2023-12-20T05:00:26;4.60;99.90
4520;DHT22;2272;49.226;8.108;2023-12-20T05:02:53;4.40;99.90
4520;DHT22;2272;49.226;8.108;2023-12-20T05:05:20;4.30;99.90
4520;DHT22;2272;49.226;8.108;2023-12-20T05:07:47;4.20;99.90
4520;DHT22;2272;49.226;8.108;2023-12-20T05:10:14;4.30;99.90
4520;DHT22;2272;49.226;8.108;2023-12-20T05:12:40;4.30;99.90
4520;DHT22;2272;49.226;8.108;2023-12-20T05:15:09;4.30;99.90
4520;DHT22;2272;49.226;8.108;2023-12-20T05:17:36;4.40;99.90
4520;DHT22;2272;49.226;8.108;2023-12-20T05:20:03;4.50;99.90
4520;DHT22;2272;49.226;8.108;2023-12-20T05:22:30;4.60;99.90
4520;DHT22;2272;49.226;8.108;2023-12-20T05:24:57;4.70;99.90
4520;DHT22;2272;49.226;8.108;2023-12-20T05:27:23;4.70;99.90
4520;DHT22;2272;49.226;8.108;2023-12-20T05:29:50;4.80;99.90
4520;DHT22;2272;49.226;8.108;2023-12-20T05:32:18;4.80;99.90
4520;DHT22;2272;49.226;8.108;2023-12-20T05:34:45;4.80;99.90
4520;DHT22;2272;49.226;8.108;2023-12-20T05:37:11;4.70;99.90
4520;DHT22;2272;49.226;8.108;2023-12-20T05:39:38;4.60;99.90
4520;DHT22;2272;49.226;8.108;2023-12-20T05:42:05;4.60;99.90
4520;DHT22;2272;49.226;8.108;2023-12-20T05:44:31;4.50;99.90
4520;DHT22;2272;49.226;8.108;2023-12-20T05:46:58;4.40;99.90
4520;DHT22;2272;49.226;8.108;2023-12-20T05:49:26;4.30;99.90
4520;DHT22;2272;49.226;8.108;2023-12-20T05:51:53;4.20;99.90
4520;DHT22;2272;49.226;8.108;2023-12-20T05:54:20;4.20;99.90
4520;DHT22;2272;49.226;8.108;2023-12-20T05:56:47;4.10;99.90
4520;DHT22;2272;49.226;8.108;2023-12-20T05:59:14;4.10;99.90
4520;DHT22;2272;49.226;8.108;2023-12-20T06:01:41;4.00;99.90
4520;DHT22;2272;49.226;8.108;2023-12-20T06:04:07;4.00;99.90
4520;DHT22;2272;49.226;8.108;2023-12-20T06:06:40;4.20;99.90
4520;DHT22;2272;49.226;8.108;2023-12-20T06:09:07;3.80;99.90
4520;DHT22;2272;49.226;8.108;2023-12-20T06:11:34;3.80;99.90
4520;DHT22;2272;49.226;8.108;2023-12-20T06:14:00;3.80;99.90
4520;DHT22;2272;49.226;8.108;2023-12-20T06:16:27;3.80;99.90
4520;DHT22;2272;49.226;8.108;2023-12-20T06:18:54;3.80;99.90
4520;DHT22;2272;49.226;8.108;2023-12-20T06:21:20;3.90;99.90
4520;DHT22;2272;49.226;8.108;2023-12-20T06:23:49;3.90;99.90
4520;DHT22;2272;49.226;8.108;2023-12-20T06:26:15;3.80;99.90
4520;DHT22;2272;49.226;8.108;2023-12-20T06:28:42;3.80;99.90
4520;DHT22;2272;49.226;8.108;2023-12-20T06:31:08;3.90;99.90
4520;DHT22;2272;49.226;8.108;2023-12-20T06:33:36;4.00;99.90
4520;DHT22;2272;49.226;8.108;2023-12-20T06:36:03;4.00;99.90
4520;DHT22;2272;49.226;8.108;2023-12-20T06:38:30;4.10;99.90
4520;DHT22;2272;49.226;8.108;2023-12-20T06:40:58;4.10;99.90
4520;DHT22;2272;49.226;8.108;2023-12-20T06:43:24;4.10;99.90
4520;DHT22;2272;49.226;8.108;2023-12-20T06:45:51;4.00;99.90
4520;DHT22;2272;49.226;8.108;2023-12-20T06:48:18;4.10;99.90
4520;DHT22;2272;49.226;8.108;2023-12-20T06:50:44;4.10;99.90
4520;DHT22;2272;49.226;8.108;2023-12-20T06:53:11;4.10;99.90
4520;DHT22;2272;49.226;8.108;2023-12-20T06:55:38;4.10;99.90
4520;DHT22;2272;49.226;8.108;2023-12-20T06:58:06;4.10;99.90
4520;DHT22;2272;49.226;8.108;2023-12-20T07:00:33;4.20;99.90
4520;DHT22;2272;49.226;8.108;2023-12-20T07:02:59;4.10;99.90
4520;DHT22;2272;49.226;8.108;2023-12-20T07:05:26;4.10;99.90
4520;DHT22;2272;49.226;8.108;2023-12-20T07:07:53;4.00;99.90
4520;DHT22;2272;49.226;8.108;2023-12-20T07:10:20;3.90;99.90
4520;DHT22;2272;49.226;8.108;2023-12-20T07:12:46;3.80;99.90
4520;DHT22;2272;49.226;8.108;2023-12-20T07:15:15;3.60;99.90
4520;DHT22;2272;49.226;8.108;2023-12-20T07:17:42;3.40;99.90
4520;DHT22;2272;49.226;8.108;2023-12-20T07:20:10;3.20;99.90
4520;DHT22;2272;49.226;8.108;2023-12-20T07:22:36;3.10;99.90
4520;DHT22;2272;49.226;8.108;2023-12-20T07:25:04;3.10;99.90
4520;DHT22;2272;49.226;8.108;2023-12-20T07:27:30;3.00;99.90
4520;DHT22;2272;49.226;8.108;2023-12-20T07:29:57;2.90;99.90
4520;DHT22;2272;49.226;8.108;2023-12-20T07:32:25;2.70;99.90
4520;DHT22;2272;49.226;8.108;2023-12-20T07:34:52;2.30;99.90
4520;DHT22;2272;49.226;8.108;2023-12-20T07:37:20;2.50;99.90
4520;DHT22;2272;49.226;8.108;2023-12-20T07:39:46;2.50;99.90
4520;DHT22;2272;49.226;8.108;2023-12-20T07:42:13;2.50;99.90
4520;DHT22;2272;49.226;8.108;2023-12-20T07:44:40;2.50;99.90
4520;DHT22;2272;49.226;8.108;2023-12-20T07:47:06;2.40;99.90
4520;DHT22;2272;49.226;8.108;2023-12-20T07:49:34;2.40;99.90
4520;DHT22;2272;49.226;8.108;2023-12-20T07:52:01;2.50;99.90
4520;DHT22;2272;49.226;8.108;2023-12-20T07:54:28;2.50;99.90
4520;DHT22;2272;49.226;8.108;2023-12-20T07:56:55;2.50;99.90
4520;DHT22;2272;49.226;8.108;2023-12-20T07:59:21;2.50;99.90
4520;DHT22;2272;49.226;8.108;2023-12-20T08:01:47;2.60;99.90
4520;DHT22;2272;49.226;8.108;2023-12-20T08:04:14;2.60;99.90
4520;DHT22;2272;49.226;8.108;2023-12-20T08:06:42;2.80;99.90
4520;DHT22;2272;49.226;8.108;2023-12-20T08:09:09;2.80;99.90
4520;DHT22;2272;49.226;8.108;2023-12-20T08:11:35;2.80;99.90
4520;DHT22;2272;49.226;8.108;2023-12-20T08:14:02;2.80;99.90
4520;DHT22;2272;49.226;8.108;2023-12-20T08:16:29;2.90;99.90
4520;DHT22;2272;49.226;8.108;2023-12-20T08:18:55;2.90;99.90
4520;DHT22;2272;49.226;8.108;2023-12-20T08:21:22;2.90;99.90
4520;DHT22;2272;49.226;8.108;2023-12-20T08:23:50;2.90;99.90
4520;DHT22;2272;49.226;8.108;2023-12-20T08:26:19;2.90;99.90
4520;DHT22;2272;49.226;8.108;2023-12-20T08:28:47;3.00;99.90
4520;DHT22;2272;49.226;8.108;2023-12-20T08:31:14;3.00;99.90
4520;DHT22;2272;49.226;8.108;2023-12-20T08:33:42;3.10;99.90
4520;DHT22;2272;49.226;8.108;2023-12-20T08:36:09;3.10;99.90
4520;DHT22;2272;49.226;8.108;2023-12-20T08:38:36;3.10;99.90
4520;DHT22;2272;49.226;8.108;2023-12-20T08:41:04;3.10;99.90
4520;DHT22;2272;49.226;8.108;2023-12-20T08:43:31;3.10;99.90
4520;DHT22;2272;49.226;8.108;2023-12-20T08:45:58;3.10;99.90
4520;DHT22;2272;49.226;8.108;2023-12-20T08:48:24;3.20;99.90
4520;DHT22;2272;49.226;8.108;2023-12-20T08:50:51;3.20;99.90
4520;DHT22;2272;49.226;8.108;2023-12-20T08:53:18;3.20;99.90
4520;DHT22;2272;49.226;8.108;2023-12-20T08:55:47;3.20;99.90
4520;DHT22;2272;49.226;8.108;2023-12-20T08:58:15;3.30;99.90
4520;DHT22;2272;49.226;8.108;2023-12-20T09:00:42;3.30;99.90
4520;DHT22;2272;49.226;8.108;2023-12-20T09:03:09;3.40;99.90
4520;DHT22;2272;49.226;8.108;2023-12-20T09:05:35;3.40;99.90
4520;DHT22;2272;49.226;8.108;2023-12-20T09:08:03;3.50;99.90
4520;DHT22;2272;49.226;8.108;2023-12-20T09:10:29;3.60;99.90
4520;DHT22;2272;49.226;8.108;2023-12-20T09:12:56;3.60;99.90
4520;DHT22;2272;49.226;8.108;2023-12-20T09:15:25;3.70;99.90
4520;DHT22;2272;49.226;8.108;2023-12-20T09:17:52;3.70;99.90
4520;DHT22;2272;49.226;8.108;2023-12-20T09:20:19;3.80;99.90
4520;DHT22;2272;49.226;8.108;2023-12-20T09:22:45;3.80;99.90
4520;DHT22;2272;49.226;8.108;2023-12-20T09:25:12;3.90;99.90
4520;DHT22;2272;49.226;8.108;2023-12-20T09:27:41;4.10;99.90
4520;DHT22;2272;49.226;8.108;2023-12-20T09:30:08;4.40;99.90
4520;DHT22;2272;49.226;8.108;2023-12-20T09:32:36;4.70;99.90
4520;DHT22;2272;49.226;8.108;2023-12-20T09:35:03;4.90;99.90
4520;DHT22;2272;49.226;8.108;2023-12-20T09:37:31;5.00;99.90
4520;DHT22;2272;49.226;8.108;2023-12-20T09:39:57;5.20;99.90
4520;DHT22;2272;49.226;8.108;2023-12-20T09:42:29;5.20;99.90
4520;DHT22;2272;49.226;8.108;2023-12-20T09:45:02;5.20;99.90
4520;DHT22;2272;49.226;8.108;2023-12-20T09:47:29;5.40;99.90
4520;DHT22;2272;49.226;8.108;2023-12-20T09:49:57;5.60;99.90
4520;DHT22;2272;49.226;8.108;2023-12-20T09:52:24;5.80;99.90
4520;DHT22;2272;49.226;8.108;2023-12-20T09:54:52;5.70;99.90
4520;DHT22;2272;49.226;8.108;2023-12-20T09:57:20;5.60;99.90
4520;DHT22;2272;49.226;8.108;2023-12-20T09:59:47;5.40;99.90
4520;DHT22;2272;49.226;8.108;2023-12-20T10:02:14;5.40;99.90
4520;DHT22;2272;49.226;8.108;2023-12-20T10:04:46;5.30;99.90
4520;DHT22;2272;49.226;8.108;2023-12-20T10:07:15;5.10;99.90
4520;DHT22;2272;49.226;8.108;2023-12-20T10:09:42;5.10;99.90
4520;DHT22;2272;49.226;8.108;2023-12-20T10:12:09;4.40;99.90
4520;DHT22;2272;49.226;8.108;2023-12-20T10:14:36;5.00;99.90
4520;DHT22;2272;49.226;8.108;2023-12-20T10:17:03;5.20;99.90
4520;DHT22;2272;49.226;8.108;2023-12-20T10:19:30;4.20;99.90
4520;DHT22;2272;49.226;8.108;2023-12-20T10:21:57;5.40;99.90
4520;DHT22;2272;49.226;8.108;2023-12-20T10:24:28;5.80;99.90
4520;DHT22;2272;49.226;8.108;2023-12-20T10:27:01;6.10;99.90
4520;DHT22;2272;49.226;8.108;2023-12-20T10:29:32;6.40;99.90
4520;DHT22;2272;49.226;8.108;2023-12-20T10:31:58;6.60;99.90
4520;DHT22;2272;49.226;8.108;2023-12-20T10:34:25;6.90;99.90
4520;DHT22;2272;49.226;8.108;2023-12-20T10:36:52;6.70;99.90
4520;DHT22;2272;49.226;8.108;2023-12-20T10:39:20;6.90;99.90
4520;DHT22;2272;49.226;8.108;2023-12-20T10:41:49;6.50;99.90
4520;DHT22;2272;49.226;8.108;2023-12-20T10:44:16;6.60;99.90
4520;DHT22;2272;49.226;8.108;2023-12-20T10:46:43;6.50;99.90
4520;DHT22;2272;49.226;8.108;2023-12-20T10:49:17;6.50;99.90
4520;DHT22;2272;49.226;8.108;2023-12-20T10:51:46;7.20;99.90
4520;DHT22;2272;49.226;8.108;2023-12-20T10:54:14;6.80;99.90
4520;DHT22;2272;49.226;8.108;2023-12-20T10:56:41;6.30;99.90
4520;DHT22;2272;49.226;8.108;2023-12-20T10:59:11;6.50;99.90
4520;DHT22;2272;49.226;8.108;2023-12-20T11:01:38;6.50;99.90
4520;DHT22;2272;49.226;8.108;2023-12-20T11:04:08;6.40;99.90
4520;DHT22;2272;49.226;8.108;2023-12-20T11:06:45;5.80;99.90
4520;DHT22;2272;49.226;8.108;2023-12-20T11:09:19;6.40;99.90
4520;DHT22;2272;49.226;8.108;2023-12-20T11:11:56;5.90;99.90
4520;DHT22;2272;49.226;8.108;2023-12-20T11:14:31;6.40;99.90
4520;DHT22;2272;49.226;8.108;2023-12-20T11:17:06;6.40;99.90
4520;DHT22;2272;49.226;8.108;2023-12-20T11:19:36;6.30;99.90
4520;DHT22;2272;49.226;8.108;2023-12-20T11:22:04;6.20;99.90
4520;DHT22;2272;49.226;8.108;2023-12-20T11:24:31;6.10;99.90
4520;DHT22;2272;49.226;8.108;2023-12-20T11:27:00;6.00;99.90
4520;DHT22;2272;49.226;8.108;2023-12-20T11:29:33;6.10;99.90
4520;DHT22;2272;49.226;8.108;2023-12-20T11:32:01;6.10;99.90
4520;DHT22;2272;49.226;8.108;2023-12-20T11:34:28;6.20;99.90
4520;DHT22;2272;49.226;8.108;2023-12-20T11:36:58;6.30;99.90
4520;DHT22;2272;49.226;8.108;2023-12-20T11:39:26;6.40;99.90
4520;DHT22;2272;49.226;8.108;2023-12-20T11:41:55;6.50;99.90
4520;DHT22;2272;49.226;8.108;2023-12-20T11:44:22;6.60;99.90
4520;DHT22;2272;49.226;8.108;2023-12-20T11:46:50;7.00;99.90
4520;DHT22;2272;49.226;8.108;2023-12-20T11:49:17;6.50;99.90
4520;DHT22;2272;49.226;8.108;2023-12-20T11:51:44;6.60;99.90
4520;DHT22;2272;49.226;8.108;2023-12-20T11:54:10;6.60;99.90
4520;DHT22;2272;49.226;8.108;2023-12-20T11:56:37;6.40;99.90
4520;DHT22;2272;49.226;8.108;2023-12-20T11:59:04;6.60;99.90
4520;DHT22;2272;49.226;8.108;2023-12-20T12:01:31;6.50;99.90
4520;DHT22;2272;49.226;8.108;2023-12-20T12:04:06;6.50;99.90
4520;DHT22;2272;49.226;8.108;2023-12-20T12:06:33;6.60;99.90
4520;DHT22;2272;49.226;8.108;2023-12-20T12:09:00;6.60;99.90
4520;DHT22;2272;49.226;8.108;2023-12-20T12:11:26;6.40;99.90
4520;DHT22;2272;49.226;8.108;2023-12-20T12:13:53;6.30;99.90
4520;DHT22;2272;49.226;8.108;2023-12-20T12:16:21;6.30;99.90
4520;DHT22;2272;49.226;8.108;2023-12-20T12:18:55;6.30;99.90
4520;DHT22;2272;49.226;8.108;2023-12-20T12:21:23;6.10;99.90
4520;DHT22;2272;49.226;8.108;2023-12-20T12:23:50;6.30;99.90
4520;DHT22;2272;49.226;8.108;2023-12-20T12:26:18;6.10;99.90
4520;DHT22;2272;49.226;8.108;2023-12-20T12:28:45;6.30;99.90
4520;DHT22;2272;49.226;8.108;2023-12-20T12:31:14;5.70;99.90
4520;DHT22;2272;49.226;8.108;2023-12-20T12:33:41;6.00;99.90
4520;DHT22;2272;49.226;8.108;2023-12-20T12:36:09;5.70;99.90
4520;DHT22;2272;49.226;8.108;2023-12-20T12:38:38;5.60;99.90
4520;DHT22;2272;49.226;8.108;2023-12-20T12:41:04;6.00;99.90
4520;DHT22;2272;49.226;8.108;2023-12-20T12:43:32;6.20;99.90
4520;DHT22;2272;49.226;8.108;2023-12-20T12:45:59;6.50;99.90
4520;DHT22;2272;49.226;8.108;2023-12-20T12:48:26;5.80;99.90
4520;DHT22;2272;49.226;8.108;2023-12-20T12:50:53;5.70;99.90
4520;DHT22;2272;49.226;8.108;2023-12-20T12:53:24;6.00;99.90
4520;DHT22;2272;49.226;8.108;2023-12-20T12:55:52;6.20;99.90
4520;DHT22;2272;49.226;8.108;2023-12-20T12:58:20;5.50;99.90
4520;DHT22;2272;49.226;8.108;2023-12-20T13:00:47;6.20;99.90
4520;DHT22;2272;49.226;8.108;2023-12-20T13:03:14;6.00;99.90
4520;DHT22;2272;49.226;8.108;2023-12-20T13:05:40;6.30;99.90
4520;DHT22;2272;49.226;8.108;2023-12-20T13:08:07;6.30;99.90
4520;DHT22;2272;49.226;8.108;2023-12-20T13:10:35;6.30;99.90
4520;DHT22;2272;49.226;8.108;2023-12-20T13:13:03;6.30;99.90
4520;DHT22;2272;49.226;8.108;2023-12-20T13:15:30;6.20;99.90
4520;DHT22;2272;49.226;8.108;2023-12-20T13:17:57;6.40;99.90
4520;DHT22;2272;49.226;8.108;2023-12-20T13:20:23;6.40;99.90
4520;DHT22;2272;49.226;8.108;2023-12-20T13:22:50;6.30;99.90
4520;DHT22;2272;49.226;8.108;2023-12-20T13:25:17;6.20;99.90
4520;DHT22;2272;49.226;8.108;2023-12-20T13:27:43;6.30;99.90
4520;DHT22;2272;49.226;8.108;2023-12-20T13:30:13;6.30;99.90
4520;DHT22;2272;49.226;8.108;2023-12-20T13:32:40;6.30;99.90
4520;DHT22;2272;49.226;8.108;2023-12-20T13:35:07;5.60;99.90
4520;DHT22;2272;49.226;8.108;2023-12-20T13:37:35;6.20;99.90
4520;DHT22;2272;49.226;8.108;2023-12-20T13:40:01;6.10;99.90
4520;DHT22;2272;49.226;8.108;2023-12-20T13:42:29;6.20;99.90
4520;DHT22;2272;49.226;8.108;2023-12-20T13:44:56;6.40;99.90
4520;DHT22;2272;49.226;8.108;2023-12-20T13:47:24;5.90;99.90
4520;DHT22;2272;49.226;8.108;2023-12-20T13:49:51;5.90;99.90
4520;DHT22;2272;49.226;8.108;2023-12-20T13:52:18;5.80;99.90
4520;DHT22;2272;49.226;8.108;2023-12-20T13:54:45;5.70;99.90
4520;DHT22;2272;49.226;8.108;2023-12-20T13:57:11;5.70;99.90
4520;DHT22;2272;49.226;8.108;2023-12-20T13:59:38;6.20;99.90
4520;DHT22;2272;49.226;8.108;2023-12-20T14:02:05;5.40;99.90
4520;DHT22;2272;49.226;8.108;2023-12-20T14:04:33;5.20;99.90
4520;DHT22;2272;49.226;8.108;2023-12-20T14:07:00;5.20;99.90
4520;DHT22;2272;49.226;8.108;2023-12-20T14:09:27;5.20;99.90
4520;DHT22;2272;49.226;8.108;2023-12-20T14:11:53;5.20;99.90
4520;DHT22;2272;49.226;8.108;2023-12-20T14:14:20;5.20;99.90
4520;DHT22;2272;49.226;8.108;2023-12-20T14:16:47;5.20;99.90
4520;DHT22;2272;49.226;8.108;2023-12-20T14:19:14;5.20;99.90
4520;DHT22;2272;49.226;8.108;2023-12-20T14:21:42;5.30;99.90
4520;DHT22;2272;49.226;8.108;2023-12-20T14:24:11;5.20;99.90
4520;DHT22;2272;49.226;8.108;2023-12-20T14:26:40;5.30;99.90
4520;DHT22;2272;49.226;8.108;2023-12-20T14:29:07;5.40;99.90
4520;DHT22;2272;49.226;8.108;2023-12-20T14:31:34;5.50;99.90
4520;DHT22;2272;49.226;8.108;2023-12-20T14:34:02;5.50;99.90
4520;DHT22;2272;49.226;8.108;2023-12-20T14:36:30;5.70;99.90
4520;DHT22;2272;49.226;8.108;2023-12-20T14:38:58;5.70;99.90
4520;DHT22;2272;49.226;8.108;2023-12-20T14:41:25;5.70;99.90
4520;DHT22;2272;49.226;8.108;2023-12-20T14:43:52;5.80;99.90
4520;DHT22;2272;49.226;8.108;2023-12-20T14:46:18;5.70;99.90
4520;DHT22;2272;49.226;8.108;2023-12-20T14:48:45;5.60;99.90
4520;DHT22;2272;49.226;8.108;2023-12-20T14:51:14;5.70;99.90
4520;DHT22;2272;49.226;8.108;2023-12-20T14:53:41;5.60;99.90
4520;DHT22;2272;49.226;8.108;2023-12-20T14:56:09;5.70;99.90
4520;DHT22;2272;49.226;8.108;2023-12-20T14:58:35;5.70;99.90
4520;DHT22;2272;49.226;8.108;2023-12-20T15:01:02;5.70;99.90
4520;DHT22;2272;49.226;8.108;2023-12-20T15:03:29;5.70;99.90
4520;DHT22;2272;49.226;8.108;2023-12-20T15:05:56;5.70;99.90
4520;DHT22;2272;49.226;8.108;2023-12-20T15:08:24;5.60;99.90
4520;DHT22;2272;49.226;8.108;2023-12-20T15:10:50;5.50;99.90
4520;DHT22;2272;49.226;8.108;2023-12-20T15:13:18;5.50;99.90
4520;DHT22;2272;49.226;8.108;2023-12-20T15:15:46;5.40;99.90
4520;DHT22;2272;49.226;8.108;2023-12-20T15:18:13;5.50;99.90
4520;DHT22;2272;49.226;8.108;2023-12-20T15:20:40;5.50;99.90
4520;DHT22;2272;49.226;8.108;2023-12-20T15:23:09;5.50;99.90
4520;DHT22;2272;49.226;8.108;2023-12-20T15:25:36;5.60;99.90
4520;DHT22;2272;49.226;8.108;2023-12-20T15:28:02;5.60;99.90
4520;DHT22;2272;49.226;8.108;2023-12-20T15:30:30;5.60;99.90
4520;DHT22;2272;49.226;8.108;2023-12-20T15:32:57;5.60;99.90
4520;DHT22;2272;49.226;8.108;2023-12-20T15:35:28;5.70;99.90
4520;DHT22;2272;49.226;8.108;2023-12-20T15:37:55;5.60;99.90
4520;DHT22;2272;49.226;8.108;2023-12-20T15:40:22;5.60;99.90
4520;DHT22;2272;49.226;8.108;2023-12-20T15:42:48;5.70;99.90
4520;DHT22;2272;49.226;8.108;2023-12-20T15:45:15;5.70;99.90
4520;DHT22;2272;49.226;8.108;2023-12-20T15:47:43;5.70;99.90
4520;DHT22;2272;49.226;8.108;2023-12-20T15:50:11;5.70;99.90
4520;DHT22;2272;49.226;8.108;2023-12-20T15:52:38;5.70;99.90
4520;DHT22;2272;49.226;8.108;2023-12-20T15:55:05;5.70;99.90
4520;DHT22;2272;49.226;8.108;2023-12-20T15:57:32;5.70;99.90
4520;DHT22;2272;49.226;8.108;2023-12-20T15:59:59;5.60;99.90
4520;DHT22;2272;49.226;8.108;2023-12-20T16:02:26;5.70;99.90
4520;DHT22;2272;49.226;8.108;2023-12-20T16:04:54;5.60;99.90
4520;DHT22;2272;49.226;8.108;2023-12-20T16:07:21;5.40;99.90
4520;DHT22;2272;49.226;8.108;2023-12-20T16:09:47;5.60;99.90
4520;DHT22;2272;49.226;8.108;2023-12-20T16:12:14;5.60;99.90
4520;DHT22;2272;49.226;8.108;2023-12-20T16:14:41;5.50;99.90
4520;DHT22;2272;49.226;8.108;2023-12-20T16:17:08;5.60;99.90